This is the latest recevied weather packets stored in our database for station/object NY5V. If no packets are shown the sender has not sent any weather packets the latest 1 day(s).
| Time | Temp. | Humidity | Pressure | Rain* | Wind** | Luminosity | Snow |
|---|---|---|---|---|---|---|---|
| 1778014273 | 27.22° C | 77% | 1006.2 hPa | 0 mm | 0.89 m/s, 31° | 124 W/m² | - |
| 1778013667 | 27.22° C | 77% | 1006.2 hPa | 0 mm | 1.79 m/s, 2° | 125 W/m² | - |
| 1778013067 | 27.78° C | 76% | 1006.1 hPa | 0 mm | 0.45 m/s, 357° | 127 W/m² | - |
| 1778012464 | 27.22° C | 76% | 1006.3 hPa | 0 mm | 0.89 m/s, 6° | 117 W/m² | - |
| 1778011859 | 27.78° C | 76% | 1006.3 hPa | 0 mm | 1.79 m/s, 31° | 154 W/m² | - |
| 1778011259 | 27.22° C | 77% | 1006.3 hPa | 0 mm | 3.13 m/s, 358° | 179 W/m² | - |
| 1778010659 | 27.22° C | 77% | 1006.6 hPa | 0 mm | 2.24 m/s, 356° | 159 W/m² | - |
| 1778010057 | 27.22° C | 76% | 1006.9 hPa | 0 mm | 4.02 m/s, 297° | 175 W/m² | - |
| 1778009458 | 26.67° C | 77% | 1006.7 hPa | 0 mm | 3.58 m/s, 43° | 189 W/m² | - |
| 1778008853 | 26.67° C | 78% | 1006.7 hPa | 0 mm | 0.89 m/s, 347° | 162 W/m² | - |
| 1778008249 | 26.67° C | 79% | 1006.7 hPa | 0 mm | 1.79 m/s, 237° | 195 W/m² | - |
| 1778007646 | 26.67° C | 79% | 1006.7 hPa | 0 mm | 1.34 m/s, 53° | 146 W/m² | - |
| 1778007045 | 26.11° C | 79% | 1006.9 hPa | 0 mm | 2.68 m/s, 35° | 172 W/m² | - |
| 1778006444 | 26.11° C | 79% | 1007.1 hPa | 0 mm | 2.24 m/s, 37° | 246 W/m² | - |
| 1778005845 | 26.11° C | 80% | 1006.9 hPa | 0 mm | 1.34 m/s, 25° | 151 W/m² | - |
| 1778005243 | 26.11° C | 79% | 1007.1 hPa | 0 mm | 2.24 m/s, 324° | 471 W/m² | - |
| 1778004643 | 25.56° C | 79% | 1007 hPa | 0 mm | 0.89 m/s, 29° | 395 W/m² | - |
| 1778004043 | 25.56° C | 80% | 1007 hPa | 0 mm | 1.79 m/s, 45° | 149 W/m² | - |
| 1778003440 | 25.56° C | 81% | 1007.4 hPa | 0 mm | 1.79 m/s, 39° | 224 W/m² | - |
| 1778002839 | 25.56° C | 81% | 1007.3 hPa | 0 mm | 0.89 m/s, 42° | 127 W/m² | - |
| 1778002239 | 25.56° C | 80% | 1007.2 hPa | 0 mm | 1.79 m/s, 302° | 731 W/m² | - |
| 1778001638 | 25.56° C | 81% | 1007.4 hPa | 0 mm | 1.79 m/s, 339° | 294 W/m² | - |
| 1778001036 | 25° C | 82% | 1007.6 hPa | 0 mm | 2.24 m/s, 14° | 407 W/m² | - |
| 1778000435 | 25° C | 82% | 1007.3 hPa | 0 mm | 1.79 m/s, 17° | 485 W/m² | - |
| 1777999832 | 25° C | 81% | 1007.7 hPa | 0 mm | 1.34 m/s, 17° | 189 W/m² | - |
* Rain latest hour (hover to see other rain measurements)
** Current wind speed in m/s (hover to see current wind gust speed)